Time;durP1;ratioP1;P1;durP2;ratioP2;P2;SDS_P1;SDS_P2;PMS_P1;PMS_P2;Temp;Humidity;BMP_temperature;BMP_pressure;BME280_temperature;BME280_humidity;BME280_pressure;Samples;Min_cycle;Max_cycle;Signal;HPM_P1;HPM_P2
2022/06/10 00:01:58;;;;;;;4.30;2.60;;;;;;;;;;5047692;28;20269;-56
2022/06/10 00:04:25;;;;;;;2.80;2.60;;;;;;;;;;5048143;28;20185;-53
2022/06/10 00:06:51;;;;;;;3.70;2.80;;;;;;;;;;5066817;28;20729;-53
2022/06/10 00:09:17;;;;;;;2.73;2.50;;;;;;;;;;5064612;28;20191;-53
2022/06/10 00:11:44;;;;;;;3.03;2.60;;;;;;;;;;5064529;28;20527;-53
2022/06/10 00:14:10;;;;;;;3.00;2.80;;;;;;;;;;5048337;28;20311;-48
2022/06/10 00:16:37;;;;;;;2.60;2.40;;;;;;;;;;5046964;28;20184;-54
2022/06/10 00:19:04;;;;;;;3.43;2.70;;;;;;;;;;5064330;28;20211;-53
2022/06/10 00:21:30;;;;;;;2.60;2.40;;;;;;;;;;5045558;28;20173;-51
2022/06/10 00:23:56;;;;;;;2.70;2.50;;;;;;;;;;5064859;28;20176;-54
2022/06/10 00:26:22;;;;;;;3.73;2.80;;;;;;;;;;5056357;28;20173;-55
2022/06/10 00:28:48;;;;;;;3.20;2.57;;;;;;;;;;5049280;28;20168;-53
2022/06/10 00:31:15;;;;;;;2.43;2.23;;;;;;;;;;5047439;28;20176;-55
2022/06/10 00:33:41;;;;;;;2.97;2.70;;;;;;;;;;5067023;28;20161;-53
2022/06/10 00:36:08;;;;;;;3.57;3.13;;;;;;;;;;5066076;28;20176;-55
2022/06/10 00:38:34;;;;;;;3.27;2.60;;;;;;;;;;5030718;28;20227;-59
2022/06/10 00:41:01;;;;;;;5.10;3.10;;;;;;;;;;5057225;28;20556;-53
2022/06/10 00:43:30;;;;;;;2.87;2.67;;;;;;;;;;5066705;28;20642;-54
2022/06/10 00:46:01;;;;;;;2.97;2.77;;;;;;;;;;5070804;28;20302;-53
2022/06/10 00:48:29;;;;;;;2.80;2.60;;;;;;;;;;5068173;28;20180;-55
2022/06/10 00:50:57;;;;;;;3.20;2.90;;;;;;;;;;5071920;28;20196;-51
2022/06/10 00:53:27;;;;;;;2.90;2.57;;;;;;;;;;5065753;28;20569;-55
2022/06/10 00:55:55;;;;;;;2.77;2.57;;;;;;;;;;5067659;28;20172;-56
2022/06/10 00:58:24;;;;;;;3.00;2.80;;;;;;;;;;5084950;28;20178;-56
2022/06/10 01:00:50;;;;;;;2.80;2.60;;;;;;;;;;5071631;28;20634;-53
2022/06/10 01:03:17;;;;;;;4.70;3.10;;;;;;;;;;5067299;28;20206;-56
2022/06/10 01:05:43;;;;;;;3.30;3.00;;;;;;;;;;5075663;28;20279;-55
2022/06/10 01:08:11;;;;;;;3.10;2.77;;;;;;;;;;5075951;28;20270;-54
2022/06/10 01:10:50;;;;;;;3.23;2.90;;;;;;;;;;5074456;28;21707;-55
2022/06/10 01:13:25;;;;;;;3.30;3.00;;;;;;;;;;5061483;28;20285;-53
2022/06/10 01:15:51;;;;;;;3.10;2.90;;;;;;;;;;5067310;28;20201;-53
2022/06/10 01:18:42;;;;;;;3.20;2.90;;;;;;;;;;5080335;28;20179;-54
2022/06/10 01:21:19;;;;;;;3.57;2.60;;;;;;;;;;5073810;28;20180;-55
2022/06/10 01:23:45;;;;;;;2.90;2.57;;;;;;;;;;5067938;28;20848;-53
2022/06/10 01:26:26;;;;;;;3.03;2.73;;;;;;;;;;5079111;28;20203;-53
2022/06/10 01:29:08;;;;;;;3.13;2.67;;;;;;;;;;5076948;28;20804;-53
2022/06/10 01:31:38;;;;;;;3.70;3.27;;;;;;;;;;5057570;28;20251;-51
2022/06/10 01:34:31;;;;;;;3.03;2.73;;;;;;;;;;5072845;28;20178;-52
2022/06/10 01:37:01;;;;;;;2.87;2.57;;;;;;;;;;5042881;28;20222;-53
2022/06/10 01:39:47;;;;;;;3.17;2.90;;;;;;;;;;5076793;28;20645;-54
2022/06/10 01:42:37;;;;;;;3.75;3.10;;;;;;;;;;5065444;28;20885;-53
2022/06/10 01:45:32;;;;;;;4.33;2.97;;;;;;;;;;5069280;28;20511;-54
2022/06/10 01:48:01;;;;;;;3.00;2.80;;;;;;;;;;5047518;28;20192;-54
2022/06/10 01:50:32;;;;;;;3.00;2.80;;;;;;;;;;5062205;28;20192;-54
2022/06/10 01:53:03;;;;;;;5.37;3.37;;;;;;;;;;5046019;28;20201;-54
2022/06/10 01:55:32;;;;;;;2.90;2.70;;;;;;;;;;5064787;28;20218;-55
2022/06/10 01:58:00;;;;;;;3.57;3.13;;;;;;;;;;5069725;28;20207;-55
2022/06/10 02:00:28;;;;;;;3.17;2.90;;;;;;;;;;5056356;28;20693;-55
2022/06/10 02:03:04;;;;;;;3.70;2.97;;;;;;;;;;5070383;28;20232;-54
2022/06/10 02:05:32;;;;;;;3.50;3.20;;;;;;;;;;5059284;28;20631;-56
2022/06/10 02:08:07;;;;;;;3.07;2.83;;;;;;;;;;5030787;28;20657;-55
2022/06/10 02:10:38;;;;;;;3.93;3.63;;;;;;;;;;5077708;28;20176;-55
2022/06/10 02:13:07;;;;;;;2.90;2.63;;;;;;;;;;5028963;28;20187;-55
2022/06/10 02:15:36;;;;;;;3.10;2.90;;;;;;;;;;5074321;28;20462;-55
2022/06/10 02:18:07;;;;;;;2.93;2.73;;;;;;;;;;5066136;28;20279;-56
2022/06/10 02:20:34;;;;;;;3.40;2.90;;;;;;;;;;5067109;28;20176;-54
2022/06/10 02:23:03;;;;;;;4.50;3.10;;;;;;;;;;5048578;28;20188;-56
2022/06/10 02:25:34;;;;;;;4.33;3.00;;;;;;;;;;5066190;28;20746;-56
2022/06/10 02:28:06;;;;;;;3.57;3.23;;;;;;;;;;5067496;28;20187;-55
2022/06/10 02:30:44;;;;;;;3.67;3.20;;;;;;;;;;5066797;28;20168;-54
2022/06/10 02:33:12;;;;;;;3.30;3.00;;;;;;;;;;5065451;28;20169;-53
2022/06/10 02:35:44;;;;;;;5.03;3.07;;;;;;;;;;5065281;28;20185;-53
2022/06/10 02:38:13;;;;;;;3.47;3.17;;;;;;;;;;5051759;28;20656;-55
2022/06/10 02:40:44;;;;;;;4.17;3.73;;;;;;;;;;5064545;28;20220;-54
2022/06/10 02:43:27;;;;;;;3.30;3.00;;;;;;;;;;5069456;28;20199;-55
2022/06/10 02:45:57;;;;;;;3.77;3.17;;;;;;;;;;5092256;28;20773;-53
2022/06/10 02:48:24;;;;;;;3.50;3.20;;;;;;;;;;5081894;28;20189;-54
2022/06/10 02:50:50;;;;;;;3.37;3.07;;;;;;;;;;5083956;28;20686;-55
2022/06/10 02:53:16;;;;;;;3.60;3.30;;;;;;;;;;5088463;28;20201;-53
2022/06/10 02:55:43;;;;;;;3.50;3.20;;;;;;;;;;5073445;28;20180;-53
2022/06/10 03:01:20;;;;;;;4.87;3.67;;;;;;;;;;5077553;28;20197;-54
2022/06/10 03:03:53;;;;;;;5.10;3.40;;;;;;;;;;5067793;28;20217;-55
2022/06/10 03:06:29;;;;;;;4.87;3.73;;;;;;;;;;5076786;28;20168;-54
2022/06/10 03:09:02;;;;;;;3.37;2.97;;;;;;;;;;5085066;28;20171;-54
2022/06/10 03:11:52;;;;;;;3.93;3.50;;;;;;;;;;5060009;28;20178;-54
2022/06/10 03:14:39;;;;;;;4.00;3.57;;;;;;;;;;5054380;28;20188;-54
2022/06/10 03:17:10;;;;;;;6.43;6.03;;;;;;;;;;5079873;28;20680;-54
2022/06/10 03:19:55;;;;;;;4.53;3.50;;;;;;;;;;5095945;28;20208;-53
2022/06/10 03:22:40;;;;;;;4.57;3.37;;;;;;;;;;5096764;28;20369;-54
2022/06/10 03:25:09;;;;;;;3.23;3.00;;;;;;;;;;5090241;28;20174;-54
2022/06/10 03:27:38;;;;;;;4.83;3.73;;;;;;;;;;5079793;28;20174;-55
2022/06/10 03:30:09;;;;;;;4.27;3.80;;;;;;;;;;5083001;28;20172;-52
2022/06/10 03:32:45;;;;;;;4.30;3.90;;;;;;;;;;5082896;28;20550;-54
2022/06/10 03:35:12;;;;;;;3.70;3.40;;;;;;;;;;5085860;28;20190;-52
2022/06/10 03:37:39;;;;;;;5.63;3.40;;;;;;;;;;5086116;28;20184;-54
2022/06/10 03:40:06;;;;;;;3.80;3.50;;;;;;;;;;5065880;28;20331;-55
2022/06/10 03:42:32;;;;;;;9.43;3.73;;;;;;;;;;5086122;28;20211;-55
2022/06/10 03:44:59;;;;;;;3.73;3.43;;;;;;;;;;5099012;28;20277;-54
2022/06/10 03:47:29;;;;;;;4.87;3.67;;;;;;;;;;5084415;28;20168;-54
2022/06/10 03:50:06;;;;;;;3.60;3.30;;;;;;;;;;5063959;28;20586;-54
2022/06/10 03:52:34;;;;;;;5.57;3.63;;;;;;;;;;5083964;28;20423;-53
2022/06/10 03:55:00;;;;;;;5.63;4.10;;;;;;;;;;5084563;28;20188;-54
2022/06/10 03:57:26;;;;;;;3.50;3.20;;;;;;;;;;5068294;28;20181;-54
2022/06/10 03:59:52;;;;;;;5.40;3.47;;;;;;;;;;5064573;28;21448;-54
2022/06/10 04:02:19;;;;;;;5.33;4.83;;;;;;;;;;5081188;28;20537;-53
2022/06/10 04:04:46;;;;;;;4.80;3.60;;;;;;;;;;5065604;28;20413;-55
2022/06/10 04:07:13;;;;;;;4.53;4.20;;;;;;;;;;5062615;28;20173;-53
2022/06/10 04:09:40;;;;;;;5.00;3.97;;;;;;;;;;5093906;28;20227;-52
2022/06/10 04:12:06;;;;;;;3.70;3.40;;;;;;;;;;5071823;28;20536;-54
2022/06/10 04:14:32;;;;;;;5.70;4.10;;;;;;;;;;5084047;28;20196;-53
2022/06/10 04:17:00;;;;;;;4.50;4.10;;;;;;;;;;5082181;28;20653;-55
2022/06/10 04:19:26;;;;;;;3.80;3.50;;;;;;;;;;5086512;28;20187;-54
2022/06/10 04:21:52;;;;;;;4.80;3.60;;;;;;;;;;5080504;28;20181;-54
2022/06/10 04:24:18;;;;;;;4.00;3.50;;;;;;;;;;5081276;28;20183;-55
2022/06/10 04:26:45;;;;;;;4.23;3.83;;;;;;;;;;5081336;28;20191;-52
2022/06/10 04:29:15;;;;;;;5.00;4.43;;;;;;;;;;5069878;28;20176;-55
2022/06/10 04:31:41;;;;;;;4.20;3.77;;;;;;;;;;5081956;28;20242;-55
2022/06/10 04:34:07;;;;;;;3.97;3.57;;;;;;;;;;5086211;28;20219;-54
2022/06/10 04:36:34;;;;;;;5.83;4.30;;;;;;;;;;5089296;28;20249;-53
2022/06/10 04:39:00;;;;;;;5.20;3.93;;;;;;;;;;5064761;28;20176;-50
2022/06/10 04:41:26;;;;;;;5.07;4.37;;;;;;;;;;5060962;28;20701;-53
2022/06/10 04:43:52;;;;;;;5.40;3.97;;;;;;;;;;5068110;28;21729;-54
2022/06/10 04:46:27;;;;;;;5.63;5.23;;;;;;;;;;5083431;28;20172;-55
2022/06/10 04:48:53;;;;;;;4.83;4.00;;;;;;;;;;5085647;28;20233;-55
2022/06/10 04:51:20;;;;;;;5.73;4.40;;;;;;;;;;5087783;28;20188;-53
2022/06/10 04:53:46;;;;;;;3.80;3.50;;;;;;;;;;5084478;28;20195;-54
2022/06/10 04:56:16;;;;;;;5.10;4.23;;;;;;;;;;5067503;28;20196;-53
2022/06/10 04:58:43;;;;;;;7.23;4.30;;;;;;;;;;5062154;28;20244;-54
2022/06/10 05:01:09;;;;;;;4.33;3.93;;;;;;;;;;5045492;28;20185;-53
2022/06/10 05:03:35;;;;;;;6.13;3.87;;;;;;;;;;5078686;28;20226;-52
2022/06/10 05:06:02;;;;;;;4.67;4.13;;;;;;;;;;5078155;28;20177;-53
2022/06/10 05:08:35;;;;;;;5.33;4.47;;;;;;;;;;5063220;28;20236;-53
2022/06/10 05:11:01;;;;;;;6.67;4.13;;;;;;;;;;5065756;28;20180;-53
2022/06/10 05:13:27;;;;;;;4.60;4.10;;;;;;;;;;5082285;28;20233;-53
2022/06/10 05:15:54;;;;;;;4.23;3.70;;;;;;;;;;5066659;28;20216;-54
2022/06/10 05:18:22;;;;;;;4.77;3.80;;;;;;;;;;5078218;28;20250;-52
2022/06/10 05:20:48;;;;;;;5.80;4.03;;;;;;;;;;5075923;28;20597;-49
2022/06/10 05:23:23;;;;;;;5.23;3.77;;;;;;;;;;5081547;28;20209;-52
2022/06/10 05:25:50;;;;;;;4.10;3.77;;;;;;;;;;5066147;28;20802;-52
2022/06/10 05:28:17;;;;;;;4.13;3.53;;;;;;;;;;5087365;28;20221;-53
2022/06/10 05:30:43;;;;;;;6.70;4.00;;;;;;;;;;5075567;28;20179;-51
2022/06/10 05:33:10;;;;;;;4.47;3.60;;;;;;;;;;5070211;28;20253;-52
2022/06/10 05:35:37;;;;;;;5.33;4.10;;;;;;;;;;5065203;28;20184;-51
2022/06/10 05:38:03;;;;;;;5.23;3.80;;;;;;;;;;5066467;28;20309;-52
2022/06/10 05:40:36;;;;;;;4.50;3.87;;;;;;;;;;5084504;28;20227;-56
2022/06/10 05:43:09;;;;;;;4.27;3.87;;;;;;;;;;5085097;28;20634;-51
2022/06/10 05:45:35;;;;;;;4.77;4.20;;;;;;;;;;5074503;28;20176;-52
2022/06/10 05:48:02;;;;;;;5.17;4.33;;;;;;;;;;5048137;28;20267;-56
2022/06/10 05:50:39;;;;;;;4.90;4.13;;;;;;;;;;5090043;28;20210;-53
2022/06/10 05:53:07;;;;;;;9.40;4.80;;;;;;;;;;5085071;28;20185;-53
2022/06/10 05:55:34;;;;;;;4.33;3.93;;;;;;;;;;5086866;28;20207;-54
2022/06/10 05:58:00;;;;;;;7.70;4.23;;;;;;;;;;5085362;28;20516;-51
2022/06/10 06:00:28;;;;;;;4.50;4.10;;;;;;;;;;5101702;28;20266;-53
2022/06/10 06:02:54;;;;;;;8.53;4.90;;;;;;;;;;5074648;28;20531;-52
2022/06/10 06:05:22;;;;;;;4.70;4.30;;;;;;;;;;5093937;28;20184;-51
2022/06/10 06:07:49;;;;;;;6.83;4.73;;;;;;;;;;5085065;28;20175;-51
2022/06/10 06:10:17;;;;;;;5.20;4.20;;;;;;;;;;5084514;28;20270;-54
2022/06/10 06:12:44;;;;;;;4.83;4.33;;;;;;;;;;5085944;28;20331;-55
2022/06/10 06:15:13;;;;;;;5.13;4.00;;;;;;;;;;5066081;28;20710;-55
2022/06/10 06:17:39;;;;;;;5.57;4.07;;;;;;;;;;5084858;28;20199;-53
2022/06/10 06:20:06;;;;;;;5.80;4.10;;;;;;;;;;5080717;28;20188;-54
2022/06/10 06:22:33;;;;;;;4.47;3.97;;;;;;;;;;5069793;28;20206;-53
2022/06/10 06:25:00;;;;;;;4.27;3.87;;;;;;;;;;5066949;28;20203;-54
2022/06/10 06:27:26;;;;;;;5.00;4.07;;;;;;;;;;5067133;28;20198;-54
2022/06/10 06:29:53;;;;;;;5.77;4.07;;;;;;;;;;5062163;28;20191;-54
2022/06/10 06:32:19;;;;;;;5.37;4.07;;;;;;;;;;5084076;28;20175;-54
2022/06/10 06:34:46;;;;;;;5.82;4.35;;;;;;;;;;5084468;28;20862;-54
2022/06/10 06:37:16;;;;;;;6.93;3.83;;;;;;;;;;5060344;28;20539;-53
2022/06/10 06:39:43;;;;;;;5.10;4.60;;;;;;;;;;5045171;28;20646;-51
2022/06/10 06:42:11;;;;;;;3.97;3.63;;;;;;;;;;5084331;28;20306;-54
2022/06/10 06:44:40;;;;;;;5.87;4.23;;;;;;;;;;5061863;28;20179;-54
2022/06/10 06:47:06;;;;;;;6.03;4.37;;;;;;;;;;5044792;28;20179;-53
2022/06/10 06:49:33;;;;;;;4.17;3.77;;;;;;;;;;5055497;28;20748;-53
2022/06/10 06:51:59;;;;;;;7.10;4.20;;;;;;;;;;5048607;28;20204;-54
2022/06/10 06:54:25;;;;;;;7.13;3.90;;;;;;;;;;5070606;28;20719;-54
2022/06/10 06:56:52;;;;;;;5.77;4.83;;;;;;;;;;5085064;28;20274;-55
2022/06/10 06:59:18;;;;;;;4.60;3.87;;;;;;;;;;5059850;28;20604;-55
2022/06/10 07:01:45;;;;;;;5.57;4.43;;;;;;;;;;5076945;28;20164;-55
2022/06/10 07:04:11;;;;;;;5.57;3.90;;;;;;;;;;5056951;28;20188;-54
2022/06/10 07:06:38;;;;;;;5.30;3.67;;;;;;;;;;5069994;28;20184;-52
2022/06/10 07:09:05;;;;;;;5.30;3.83;;;;;;;;;;5084446;28;20179;-55
2022/06/10 07:11:32;;;;;;;6.53;3.67;;;;;;;;;;5031611;28;20179;-55
2022/06/10 07:13:59;;;;;;;4.10;3.70;;;;;;;;;;5057473;28;20180;-54
2022/06/10 07:16:25;;;;;;;5.27;3.67;;;;;;;;;;5070953;28;20241;-52
2022/06/10 07:18:52;;;;;;;4.10;3.70;;;;;;;;;;5052375;28;20162;-54
2022/06/10 07:21:18;;;;;;;5.13;3.57;;;;;;;;;;5088521;28;20277;-54
2022/06/10 07:23:44;;;;;;;5.83;3.60;;;;;;;;;;5083426;28;20209;-53
2022/06/10 07:26:10;;;;;;;5.40;3.67;;;;;;;;;;5070280;28;20691;-55
2022/06/10 07:28:37;;;;;;;5.50;3.80;;;;;;;;;;5056183;28;20228;-54
2022/06/10 07:31:03;;;;;;;6.53;3.60;;;;;;;;;;5089445;28;20210;-54
2022/06/10 07:33:30;;;;;;;6.50;3.77;;;;;;;;;;5082545;28;20185;-54
2022/06/10 07:35:57;;;;;;;5.70;3.83;;;;;;;;;;5088940;28;20709;-55
2022/06/10 07:38:24;;;;;;;4.93;3.37;;;;;;;;;;5086865;28;20677;-54
2022/06/10 07:43:35;;;;;;;5.90;3.33;;;;;;;;;;5104439;28;20317;-55
2022/06/10 07:46:02;;;;;;;6.23;3.63;;;;;;;;;;5109769;28;20159;-54
2022/06/10 07:48:28;;;;;;;5.17;3.53;;;;;;;;;;5105576;28;20792;-54
2022/06/10 07:50:54;;;;;;;4.37;3.10;;;;;;;;;;5089914;28;20191;-53
2022/06/10 07:53:20;;;;;;;5.67;3.17;;;;;;;;;;5074333;28;20256;-55
2022/06/10 07:55:48;;;;;;;7.87;3.00;;;;;;;;;;5069476;28;20188;-56
2022/06/10 07:58:15;;;;;;;4.63;3.50;;;;;;;;;;5087078;28;20229;-53
2022/06/10 08:00:42;;;;;;;6.13;3.10;;;;;;;;;;5101559;28;20172;-55
2022/06/10 08:03:08;;;;;;;4.77;3.20;;;;;;;;;;5070331;28;21093;-54
2022/06/10 08:05:35;;;;;;;6.37;3.30;;;;;;;;;;5097134;28;20549;-55
2022/06/10 08:08:02;;;;;;;6.63;3.40;;;;;;;;;;5086620;28;20176;-53
2022/06/10 08:10:30;;;;;;;3.10;2.60;;;;;;;;;;5101980;28;20223;-53
2022/06/10 08:12:56;;;;;;;5.30;2.77;;;;;;;;;;5103047;28;20510;-53
2022/06/10 08:15:23;;;;;;;3.50;2.57;;;;;;;;;;5082651;28;20190;-52
2022/06/10 08:17:50;;;;;;;6.17;3.20;;;;;;;;;;5068877;28;20270;-55
2022/06/10 08:22:32;;;;;;;6.83;2.50;;;;;;;;;;5102232;28;20174;-53
2022/06/10 08:23:11;;;;;;;8.77;3.33;;;;;;;;;;5097221;28;20250;-55
2022/06/10 08:25:37;;;;;;;5.13;2.70;;;;;;;;;;5068862;28;20187;-55
2022/06/10 08:28:04;;;;;;;6.37;3.10;;;;;;;;;;5067989;28;20179;-53
2022/06/10 08:30:30;;;;;;;4.30;2.70;;;;;;;;;;5104689;28;20558;-55
2022/06/10 08:32:56;;;;;;;5.03;2.40;;;;;;;;;;5094123;28;20259;-53
2022/06/10 08:35:22;;;;;;;8.07;2.50;;;;;;;;;;5068858;28;20704;-54
2022/06/10 08:37:49;;;;;;;6.27;2.57;;;;;;;;;;5080155;28;20205;-55
2022/06/10 08:40:41;;;;;;;3.57;3.03;;;;;;;;;;5065735;28;20184;-55
2022/06/10 08:43:26;;;;;;;3.47;2.40;;;;;;;;;;5016801;28;20666;-55
2022/06/10 08:46:21;;;;;;;3.67;2.30;;;;;;;;;;5046465;28;20664;-53
2022/06/10 08:49:00;;;;;;;7.10;2.97;;;;;;;;;;5050336;28;20198;-55
2022/06/10 08:51:37;;;;;;;3.53;2.40;;;;;;;;;;5048338;28;20269;-53
2022/06/10 08:54:13;;;;;;;3.93;2.43;;;;;;;;;;5065274;28;20194;-55
2022/06/10 08:56:53;;;;;;;5.37;2.53;;;;;;;;;;5048914;28;20581;-53
2022/06/10 08:59:29;;;;;;;5.30;2.77;;;;;;;;;;5066248;28;20168;-54
2022/06/10 09:01:55;;;;;;;5.20;2.67;;;;;;;;;;5050752;28;20193;-54
2022/06/10 09:04:33;;;;;;;4.80;2.53;;;;;;;;;;5049545;28;20709;-55
2022/06/10 09:07:05;;;;;;;5.70;2.40;;;;;;;;;;5062680;28;20619;-54
2022/06/10 09:09:33;;;;;;;3.03;2.73;;;;;;;;;;5066172;28;20172;-54
2022/06/10 09:12:09;;;;;;;3.40;2.00;;;;;;;;;;5067022;28;20192;-54
2022/06/10 09:14:36;;;;;;;8.70;3.33;;;;;;;;;;5066667;28;20171;-53
2022/06/10 09:17:02;;;;;;;3.17;2.10;;;;;;;;;;5047382;28;20527;-55
2022/06/10 09:19:43;;;;;;;4.47;2.73;;;;;;;;;;5048326;28;20214;-55
2022/06/10 09:22:09;;;;;;;5.13;2.37;;;;;;;;;;5065660;28;20499;-53
2022/06/10 09:24:39;;;;;;;3.83;2.23;;;;;;;;;;5064363;28;20298;-54
2022/06/10 09:27:24;;;;;;;5.27;2.67;;;;;;;;;;5048278;28;20276;-53
2022/06/10 09:29:50;;;;;;;3.33;2.47;;;;;;;;;;5048331;28;20188;-54
2022/06/10 09:32:37;;;;;;;4.27;2.23;;;;;;;;;;5044223;28;20234;-54
2022/06/10 09:35:18;;;;;;;3.07;2.27;;;;;;;;;;5048546;28;20544;-54
2022/06/10 09:37:50;;;;;;;4.57;2.00;;;;;;;;;;5027387;28;20196;-54
2022/06/10 09:43:26;;;;;;;4.47;1.90;;;;;;;;;;5065056;28;20238;-55
2022/06/10 09:45:58;;;;;;;3.80;2.23;;;;;;;;;;5047886;28;20458;-54
2022/06/10 09:48:40;;;;;;;3.50;2.33;;;;;;;;;;5048213;28;20164;-53
2022/06/10 09:51:29;;;;;;;6.73;2.57;;;;;;;;;;5047136;28;20287;-55
2022/06/10 09:54:11;;;;;;;2.37;1.90;;;;;;;;;;5054740;28;20212;-54
2022/06/10 09:56:37;;;;;;;2.97;2.23;;;;;;;;;;5071446;28;20629;-56
2022/06/10 09:59:12;;;;;;;5.63;2.23;;;;;;;;;;5067682;28;20557;-56
2022/06/10 10:01:41;;;;;;;4.83;2.20;;;;;;;;;;5065567;28;20192;-53
2022/06/10 10:04:18;;;;;;;4.83;1.83;;;;;;;;;;5038512;28;20197;-53
2022/06/10 10:07:03;;;;;;;4.00;1.97;;;;;;;;;;5061761;28;20238;-57
2022/06/10 10:09:38;;;;;;;5.03;2.27;;;;;;;;;;5045386;28;20176;-56
2022/06/10 10:12:11;;;;;;;3.53;2.10;;;;;;;;;;5058211;28;20300;-54
2022/06/10 10:14:37;;;;;;;6.23;2.40;;;;;;;;;;5070856;28;20535;-55
2022/06/10 10:17:10;;;;;;;4.40;2.10;;;;;;;;;;5044973;28;20267;-53
2022/06/10 10:19:46;;;;;;;3.00;2.20;;;;;;;;;;5058128;28;20202;-54
2022/06/10 10:22:16;;;;;;;3.33;2.20;;;;;;;;;;5060474;28;20532;-56
2022/06/10 10:24:43;;;;;;;4.00;2.33;;;;;;;;;;5046770;28;20238;-55
2022/06/10 10:27:21;;;;;;;4.90;2.27;;;;;;;;;;5065194;28;20306;-55
2022/06/10 10:29:51;;;;;;;4.70;2.43;;;;;;;;;;5062032;28;20165;-52
2022/06/10 10:32:19;;;;;;;2.73;2.00;;;;;;;;;;5049373;28;20233;-54
2022/06/10 10:34:48;;;;;;;2.20;1.90;;;;;;;;;;5060754;28;20192;-55
2022/06/10 10:37:24;;;;;;;2.17;1.73;;;;;;;;;;5047646;28;20263;-52
2022/06/10 10:39:52;;;;;;;4.80;2.40;;;;;;;;;;5061638;28;20200;-55
2022/06/10 10:42:20;;;;;;;4.23;2.00;;;;;;;;;;5065368;28;20270;-54
2022/06/10 10:44:48;;;;;;;2.03;1.83;;;;;;;;;;5091608;28;20316;-55
2022/06/10 10:47:14;;;;;;;2.67;2.20;;;;;;;;;;5071036;28;20168;-56
2022/06/10 10:49:40;;;;;;;3.13;2.10;;;;;;;;;;5099050;28;20175;-55
2022/06/10 10:52:26;;;;;;;4.30;2.33;;;;;;;;;;5091306;28;20180;-53
2022/06/10 10:54:57;;;;;;;4.37;2.40;;;;;;;;;;5089635;28;20179;-55
2022/06/10 10:57:29;;;;;;;3.93;2.23;;;;;;;;;;5070223;28;20277;-55
2022/06/10 10:59:58;;;;;;;5.20;2.43;;;;;;;;;;5078768;28;20184;-56
2022/06/10 11:02:43;;;;;;;4.50;2.33;;;;;;;;;;5077044;28;20392;-56
2022/06/10 11:05:16;;;;;;;4.17;2.50;;;;;;;;;;5082144;28;20176;-57
2022/06/10 11:07:43;;;;;;;4.47;2.47;;;;;;;;;;5083709;28;20248;-55
2022/06/10 11:10:17;;;;;;;2.73;2.30;;;;;;;;;;5089753;28;20245;-55
2022/06/10 11:12:44;;;;;;;4.03;1.90;;;;;;;;;;5088073;28;20251;-55
2022/06/10 11:15:31;;;;;;;6.53;2.50;;;;;;;;;;5085480;28;20337;-54
2022/06/10 11:17:58;;;;;;;4.63;2.77;;;;;;;;;;5086416;28;20317;-55
2022/06/10 11:20:32;;;;;;;5.27;2.57;;;;;;;;;;5078986;28;20196;-56
2022/06/10 11:23:16;;;;;;;3.07;2.20;;;;;;;;;;5082180;28;20212;-55
2022/06/10 11:25:45;;;;;;;2.97;2.70;;;;;;;;;;5082786;28;20643;-55
2022/06/10 11:28:22;;;;;;;3.03;2.50;;;;;;;;;;5079413;28;20707;-56
2022/06/10 11:30:49;;;;;;;4.10;1.93;;;;;;;;;;5081107;28;20679;-56
2022/06/10 11:33:35;;;;;;;5.00;1.90;;;;;;;;;;5083310;28;20675;-55
2022/06/10 11:36:03;;;;;;;4.87;2.17;;;;;;;;;;5081949;28;20258;-55
2022/06/10 11:38:31;;;;;;;3.87;2.27;;;;;;;;;;5061000;28;20176;-57
2022/06/10 11:40:59;;;;;;;3.53;2.33;;;;;;;;;;5076959;28;20287;-52
2022/06/10 11:43:28;;;;;;;6.13;2.40;;;;;;;;;;5082057;28;20209;-57
2022/06/10 11:45:56;;;;;;;4.40;2.40;;;;;;;;;;5084732;28;20187;-57
2022/06/10 11:48:22;;;;;;;3.07;2.30;;;;;;;;;;5086579;28;20530;-55
2022/06/10 11:50:59;;;;;;;4.07;2.40;;;;;;;;;;5085118;28;20265;-56
2022/06/10 11:53:25;;;;;;;4.30;2.23;;;;;;;;;;5087038;28;20660;-55
2022/06/10 11:59:42;;;;;;;4.03;2.20;;;;;;;;;;5082311;28;20180;-52
2022/06/10 12:01:30;;;;;;;2.77;2.40;;;;;;;;;;5078987;28;20244;-54
2022/06/10 12:04:01;;;;;;;5.23;2.67;;;;;;;;;;5079707;28;20207;-52
2022/06/10 12:06:35;;;;;;;2.90;2.60;;;;;;;;;;5078165;28;20187;-54
2022/06/10 12:09:02;;;;;;;4.93;2.27;;;;;;;;;;5052511;28;20517;-53
2022/06/10 12:11:44;;;;;;;3.70;2.30;;;;;;;;;;5080470;28;20225;-54
2022/06/10 12:14:33;;;;;;;4.07;2.50;;;;;;;;;;5066030;28;20622;-57
2022/06/10 12:17:07;;;;;;;7.20;2.63;;;;;;;;;;5069942;28;20203;-55
2022/06/10 12:19:40;;;;;;;10.63;5.23;;;;;;;;;;5058679;28;20525;-55
2022/06/10 12:22:09;;;;;;;3.77;3.40;;;;;;;;;;5081208;28;20619;-54
2022/06/10 12:24:35;;;;;;;3.83;2.13;;;;;;;;;;5087040;28;20184;-56
2022/06/10 12:27:06;;;;;;;3.20;2.30;;;;;;;;;;5067983;28;20606;-55
2022/06/10 12:29:50;;;;;;;4.40;2.23;;;;;;;;;;5063583;28;20178;-56
2022/06/10 12:32:25;;;;;;;5.80;2.50;;;;;;;;;;5067472;28;20711;-54
2022/06/10 12:34:57;;;;;;;3.07;2.20;;;;;;;;;;5087049;28;20221;-58
2022/06/10 12:37:27;;;;;;;6.60;2.83;;;;;;;;;;5081600;28;20185;-53
2022/06/10 12:40:16;;;;;;;3.07;2.47;;;;;;;;;;5067169;28;20187;-54
2022/06/10 12:42:46;;;;;;;5.13;2.50;;;;;;;;;;5076617;28;20228;-52
2022/06/10 12:45:30;;;;;;;7.50;2.20;;;;;;;;;;5071943;28;20489;-54
2022/06/10 12:47:59;;;;;;;7.60;2.50;;;;;;;;;;5046320;28;20214;-54
2022/06/10 12:50:27;;;;;;;3.17;2.37;;;;;;;;;;5072931;28;20197;-53
2022/06/10 12:53:12;;;;;;;5.87;2.60;;;;;;;;;;5086686;28;20644;-54
2022/06/10 12:55:38;;;;;;;5.37;3.43;;;;;;;;;;5070981;28;20216;-53
2022/06/10 12:58:04;;;;;;;6.60;2.83;;;;;;;;;;5063430;28;20261;-54
2022/06/10 13:00:36;;;;;;;3.83;2.50;;;;;;;;;;5068245;28;20229;-55
2022/06/10 13:03:14;;;;;;;7.83;2.40;;;;;;;;;;5074365;28;20287;-54
2022/06/10 13:05:41;;;;;;;4.57;2.60;;;;;;;;;;5066858;28;20266;-54
2022/06/10 13:08:26;;;;;;;6.77;3.13;;;;;;;;;;5046223;28;20189;-53
2022/06/10 13:10:57;;;;;;;4.73;2.70;;;;;;;;;;5034198;28;20269;-54
2022/06/10 13:13:23;;;;;;;6.93;2.70;;;;;;;;;;5073471;28;20528;-52
2022/06/10 13:15:51;;;;;;;3.80;2.60;;;;;;;;;;5037676;28;20194;-51
2022/06/10 13:18:23;;;;;;;3.33;2.10;;;;;;;;;;5060044;28;20516;-56
2022/06/10 13:20:50;;;;;;;6.00;2.60;;;;;;;;;;5055282;28;20191;-54
2022/06/10 13:23:18;;;;;;;5.97;2.87;;;;;;;;;;5076021;28;20202;-56
2022/06/10 13:25:47;;;;;;;5.27;2.30;;;;;;;;;;5055715;28;20574;-55
2022/06/10 13:28:16;;;;;;;4.13;2.10;;;;;;;;;;5062404;28;20909;-55
2022/06/10 13:30:42;;;;;;;4.40;2.23;;;;;;;;;;5066368;28;20548;-55
2022/06/10 13:33:13;;;;;;;6.40;2.40;;;;;;;;;;5063567;28;20648;-55
2022/06/10 13:35:45;;;;;;;5.03;2.77;;;;;;;;;;5061919;28;20642;-57
2022/06/10 13:38:17;;;;;;;6.10;2.20;;;;;;;;;;5060181;28;20324;-53
2022/06/10 13:40:47;;;;;;;4.97;2.73;;;;;;;;;;5065690;28;20184;-55
2022/06/10 13:43:20;;;;;;;4.53;2.33;;;;;;;;;;5075497;28;20712;-57
2022/06/10 13:45:46;;;;;;;5.83;2.90;;;;;;;;;;5063764;28;20654;-57
2022/06/10 13:48:15;;;;;;;5.97;2.63;;;;;;;;;;5082312;28;20177;-59
2022/06/10 13:53:28;;;;;;;8.00;2.70;;;;;;;;;;5081259;28;20325;-53
2022/06/10 13:55:56;;;;;;;4.73;2.37;;;;;;;;;;5075976;28;20179;-53
2022/06/10 13:58:24;;;;;;;5.83;2.43;;;;;;;;;;5058710;28;20229;-54
2022/06/10 14:00:50;;;;;;;8.03;2.80;;;;;;;;;;5061865;28;20207;-54
2022/06/10 14:03:37;;;;;;;4.40;3.40;;;;;;;;;;5083304;28;20200;-53
2022/06/10 14:06:06;;;;;;;4.40;2.60;;;;;;;;;;5083096;28;20221;-53
2022/06/10 14:08:35;;;;;;;6.33;2.40;;;;;;;;;;5081083;28;20183;-54
2022/06/10 14:11:11;;;;;;;5.07;3.10;;;;;;;;;;5084882;28;20757;-53
2022/06/10 14:13:37;;;;;;;5.43;2.40;;;;;;;;;;5081973;28;20614;-53
2022/06/10 14:16:04;;;;;;;5.63;2.43;;;;;;;;;;5087362;28;20686;-53
2022/06/10 14:18:32;;;;;;;7.50;2.75;;;;;;;;;;5061830;28;20507;-52
2022/06/10 14:20:59;;;;;;;4.93;2.20;;;;;;;;;;5064058;28;20176;-52
2022/06/10 14:23:27;;;;;;;5.63;2.33;;;;;;;;;;5077263;28;20204;-53
2022/06/10 14:26:11;;;;;;;3.77;2.33;;;;;;;;;;5082090;28;20187;-52
2022/06/10 14:28:38;;;;;;;4.93;2.47;;;;;;;;;;5083811;28;20187;-53
2022/06/10 14:31:05;;;;;;;4.27;2.43;;;;;;;;;;5084227;28;20187;-52
2022/06/10 14:33:31;;;;;;;4.90;2.50;;;;;;;;;;5065692;28;20247;-53
2022/06/10 14:36:15;;;;;;;5.27;2.53;;;;;;;;;;5088701;28;20245;-52
2022/06/10 14:38:43;;;;;;;5.73;2.47;;;;;;;;;;5079269;28;20172;-52
2022/06/10 14:41:10;;;;;;;6.53;2.83;;;;;;;;;;5077057;28;20615;-54
2022/06/10 14:43:38;;;;;;;3.63;2.30;;;;;;;;;;5067509;28;20248;-53
2022/06/10 14:46:15;;;;;;;4.03;2.43;;;;;;;;;;5069948;28;20180;-52
2022/06/10 14:48:42;;;;;;;3.37;2.60;;;;;;;;;;5061244;28;20622;-52
2022/06/10 14:51:17;;;;;;;4.47;2.60;;;;;;;;;;5046153;28;20200;-52
2022/06/10 14:53:52;;;;;;;5.07;3.33;;;;;;;;;;5046576;28;20180;-52
2022/06/10 14:56:18;;;;;;;3.40;2.53;;;;;;;;;;5053140;28;20230;-52
2022/06/10 14:58:45;;;;;;;4.63;2.50;;;;;;;;;;5057714;28;20173;-52
2022/06/10 15:01:25;;;;;;;5.13;2.70;;;;;;;;;;5058793;28;20177;-52
2022/06/10 15:03:51;;;;;;;5.13;3.03;;;;;;;;;;5062051;28;20210;-53
2022/06/10 15:06:26;;;;;;;5.53;2.83;;;;;;;;;;5062032;28;20165;-53
2022/06/10 15:08:59;;;;;;;3.93;2.27;;;;;;;;;;5054796;28;20654;-52
2022/06/10 15:11:27;;;;;;;4.70;2.63;;;;;;;;;;5057951;28;20180;-53
2022/06/10 15:13:54;;;;;;;4.63;2.33;;;;;;;;;;5047427;28;20256;-53
2022/06/10 15:16:21;;;;;;;7.93;3.30;;;;;;;;;;5053602;28;20180;-53
2022/06/10 15:18:48;;;;;;;3.57;2.33;;;;;;;;;;5079952;28;20188;-53